CMA CGM Tosca — FMEL — position and weather

sailwx.info

Track history (hours):
 
Tides and Currents Weather Stations Pressure Air Temp Water Temp Dewpoint Dewpoint Depression Visibility Wind Speed Wind Dir Waves Ship Positions

CMA CGM Tosca

Last reported at 2017-Jun-28 03:28 UTC. Time now 2017-Jun-28 03:40 UTC.
Position N 44°24' E 008°55'.

Length 334 m; draft 10.8 m.

Type: Cargo ship. MMSI: 228335900.

Date/timePositionNaut miles runAvg speedWind from/ knotsBaromVisibWave heightAir tempDewpointWater temp
2017-Jun-28 03:28N 44°24' E 008°55'0 0.0
2017-Jun-28 02:52N 44°24' E 008°55'0 0.0
2017-Jun-28 02:28N 44°24' E 008°55'0 0.0
2017-Jun-28 01:58N 44°24' E 008°55'0 0.0
2017-Jun-28 01:28N 44°24' E 008°55'0 0.0
2017-Jun-28 00:58N 44°24' E 008°55'0 0.0
2017-Jun-28 00:28N 44°24' E 008°55'0 0.0
2017-Jun-27 23:58N 44°24' E 008°55'0 0.0
2017-Jun-27 23:28N 44°24' E 008°55'0 0.0
2017-Jun-27 22:58N 44°24' E 008°55'0 0.0
2017-Jun-27 22:28N 44°24' E 008°55'0 0.0
2017-Jun-27 21:58N 44°24' E 008°55'0 0.0
2017-Jun-27 21:28N 44°24' E 008°55'0 0.0
2017-Jun-27 20:58N 44°24' E 008°55'0 0.0
2017-Jun-27 20:28N 44°24' E 008°55'0 0.0
2017-Jun-27 19:58N 44°24' E 008°55'0 0.0
2017-Jun-27 19:28N 44°24' E 008°55'0 0.0
2017-Jun-27 18:58N 44°24' E 008°55'0 0.0
2017-Jun-27 18:28N 44°24' E 008°55'0 0.0
2017-Jun-27 17:58N 44°24' E 008°55'0 0.0
2017-Jun-27 17:29N 44°24' E 008°55'1 1.6
2017-Jun-27 17:00N 44°24' E 008°56'2 3.3
2017-Jun-27 16:30N 44°23' E 008°57'1 2.3
2017-Jun-27 16:00N 44°22' E 008°58'0 0.1
2017-Jun-27 15:30N 44°22' E 008°58'4 7.5
2017-Jun-27 15:00N 44°18' E 008°58'2019.7
2017-Jun-27 14:00N 43°59' E 008°49'1020.8
2017-Jun-27 13:30N 43°50' E 008°41'1020.3
2017-Jun-27 13:00N 43°43' E 008°31'1120.4
2017-Jun-27 12:28N 43°34' E 008°22'1620.4
2017-Jun-27 11:39N 43°23' E 008°06'3420.2
2017-Jun-27 09:58N 43°02' E 007°29'1320.0
2017-Jun-27 09:20N 42°55' E 007°15'10114.4
2017-Jun-27 02:22N 43°16' E 004°60'616.1
2017-Jun-27 02:00N 43°21' E 004°58'4 0.2
2017-Jun-26 09:09N 43°24' E 004°54'211.4
2017-Jun-26 08:58N 43°23' E 004°56'4 9.2
2017-Jun-26 08:30N 43°20' E 004°59'1112.9
2017-Jun-26 07:41N 43°09' E 005°02'617.5
2017-Jun-26 07:21N 43°04' E 004°59'719.3
2017-Jun-26 06:58N 42°58' E 004°53'919.5
2017-Jun-26 06:30N 42°50' E 004°45'1019.3
2017-Jun-26 05:59N 42°42' E 004°37'5019.4
2017-Jun-26 03:25N 42°02' E 003°57'1419.6
2017-Jun-26 02:43N 41°51' E 003°46'1219.3
2017-Jun-26 02:07N 41°42' E 003°37'219.3
2017-Jun-26 01:59N 41°40' E 003°35'919.4
2017-Jun-26 01:30N 41°33' E 003°27'1019.7
2017-Jun-26 01:00N 41°25' E 003°18'1019.7
2017-Jun-26 00:30N 41°17' E 003°10'1019.9
2017-Jun-26 00:00N 41°10' E 003°01'1019.7
2017-Jun-25 23:30N 41°02' E 002°53'1019.5
2017-Jun-25 23:00N 40°55' E 002°45'1019.4
2017-Jun-25 22:30N 40°47' E 002°37'1019.4
2017-Jun-25 21:59N 40°39' E 002°29'919.1
2017-Jun-25 21:30N 40°32' E 002°21'1019.1
2017-Jun-25 21:00N 40°25' E 002°13'1019.3
2017-Jun-25 20:31N 40°17' E 002°05'1019.6
2017-Jun-25 20:00N 40°10' E 001°57'1019.7
2017-Jun-25 19:30N 40°02' E 001°49'1019.5
2017-Jun-25 19:00N 39°55' E 001°40'1019.4
2017-Jun-25 18:30N 39°47' E 001°32'1019.5
2017-Jun-25 18:00N 39°40' E 001°24'1019.5
2017-Jun-25 17:30N 39°33' E 001°16'1019.3
2017-Jun-25 17:00N 39°25' E 001°08'1019.1
2017-Jun-25 16:30N 39°18' E 001°00'1018.9
2017-Jun-25 16:00N 39°10' E 000°53'1019.2
2017-Jun-25 15:30N 39°02' E 000°45'1019.5
2017-Jun-25 14:58N 38°54' E 000°38'919.4
2017-Jun-25 14:30N 38°46' E 000°33'1918.9
2017-Jun-25 13:30N 38°30' E 000°19'918.6
2017-Jun-25 13:00N 38°23' E 000°12'918.3
2017-Jun-25 12:30N 38°15' E 000°06'918.2
2017-Jun-25 12:00N 38°08' W 000°01'918.3
2017-Jun-25 11:30N 37°60' W 000°07'918.2
2017-Jun-25 11:00N 37°52' W 000°14'918.3
2017-Jun-25 10:30N 37°45' W 000°21'1018.7
2017-Jun-25 09:59N 37°37' W 000°27'918.9
2017-Jun-25 09:30N 37°30' W 000°35'918.4
2017-Jun-25 09:00N 37°24' W 000°43'918.5
2017-Jun-25 08:30N 37°18' W 000°52'918.4
2017-Jun-25 08:00N 37°11' W 001°01'918.2
2017-Jun-25 07:30N 37°05' W 001°09'917.8
2017-Jun-25 07:00N 36°60' W 001°18'918.0
2017-Jun-25 06:30N 36°54' W 001°26'917.8
2017-Jun-25 06:00N 36°48' W 001°34'917.6
2017-Jun-25 05:30N 36°42' W 001°42'917.7
2017-Jun-25 05:00N 36°36' W 001°51'918.3
2017-Jun-25 04:30N 36°29' W 001°58'918.2
2017-Jun-25 04:00N 36°24' W 002°07'1018.7
2017-Jun-25 03:29N 36°21' W 002°19'918.2
2017-Jun-25 03:00N 36°19' W 002°30'12118.7
2017-Jun-24 20:33N 36°02' W 004°58'119.3
2017-Jun-24 20:30N 36°02' W 004°59'1019.1
2017-Jun-24 20:00N 35°60' W 005°11'1021.0
2017-Jun-24 19:30N 35°58' W 005°23'7 0.3
2017-Jun-23 21:52N 35°54' W 005°30'1 3.6
2017-Jun-23 21:29N 35°55' W 005°30'2 1.3
2017-Jun-23 19:48N 35°55' W 005°33'2 4.8
2017-Jun-23 19:23N 35°56' W 005°31'2 4.8
2017-Jun-23 19:00N 35°58' W 005°30'1 2.2
2017-Jun-23 18:30N 35°59' W 005°29'1 2.3
2017-Jun-23 18:00N 35°59' W 005°28'2 3.5
2017-Jun-23 17:30N 35°59' W 005°26'2 4.2
2017-Jun-23 17:00N 36°00' W 005°23'3 6.4
2017-Jun-23 16:30N 36°01' W 005°20'2 3.8
2017-Jun-23 16:00N 36°01' W 005°17'2 3.5
2017-Jun-23 15:30N 36°01' W 005°15'2 4.3
2017-Jun-23 15:00N 36°02' W 005°13'5 4.8
2017-Jun-23 14:00N 36°03' W 005°07'2 4.8
2017-Jun-23 13:30N 36°04' W 005°04'612.1
2017-Jun-23 12:58N 36°05' W 004°56'13612.2
2017-Jun-23 01:51N 36°27' W 002°10'411.0
2017-Jun-23 01:30N 36°29' W 002°07'611.1
2017-Jun-23 01:00N 36°33' W 002°01'611.4
2017-Jun-23 00:28N 36°37' W 001°56'511.7
2017-Jun-23 00:00N 36°40' W 001°51'611.7
2017-Jun-22 23:30N 36°44' W 001°45'611.8
2017-Jun-22 23:00N 36°48' W 001°40'611.8
2017-Jun-22 22:30N 36°52' W 001°34'1411.6
2017-Jun-22 21:20N 37°01' W 001°22'411.2
2017-Jun-22 20:59N 37°04' W 001°18'711.2
2017-Jun-22 20:23N 37°08' W 001°11'1511.4
2017-Jun-22 19:06N 37°18' W 000°58'111.2
2017-Jun-22 19:00N 37°18' W 000°56'511.0
2017-Jun-22 18:30N 37°22' W 000°51'510.7
2017-Jun-22 18:00N 37°26' W 000°46'510.5
2017-Jun-22 17:30N 37°29' W 000°41'510.3
2017-Jun-22 17:00N 37°33' W 000°37'5 9.9
2017-Jun-22 16:30N 37°36' W 000°32'510.0
2017-Jun-22 16:00N 37°40' W 000°28'510.1
2017-Jun-22 15:30N 37°44' W 000°25'510.2
2017-Jun-22 15:00N 37°49' W 000°21'815.1
2017-Jun-22 14:30N 37°55' W 000°17'1818.0
2017-Jun-22 13:31N 38°10' W 000°04'917.8
2017-Jun-22 13:01N 38°18' E 000°02'917.7
2017-Jun-22 12:30N 38°25' E 000°08'917.7
2017-Jun-22 12:01N 38°32' E 000°14'917.5
2017-Jun-22 11:30N 38°40' E 000°20'917.5
2017-Jun-22 11:00N 38°48' E 000°26'918.2
2017-Jun-22 10:31N 38°55' E 000°32'918.4
2017-Jun-22 10:01N 39°04' E 000°37'918.8
2017-Jun-22 09:31N 39°12' E 000°43'1019.2
2017-Jun-22 08:59N 39°21' E 000°49'1119.1
2017-Jun-22 08:25N 39°30' E 000°56'818.9
2017-Jun-22 08:00N 39°37' E 001°01'918.9
2017-Jun-22 07:30N 39°45' E 001°07'918.7
2017-Jun-22 07:00N 39°54' E 001°12'918.9
2017-Jun-22 06:30N 40°02' E 001°18'1019.2
2017-Jun-22 06:00N 40°11' E 001°24'1019.3
2017-Jun-22 05:30N 40°19' E 001°30'1019.5
2017-Jun-22 05:00N 40°27' E 001°36'1019.6
2017-Jun-22 04:30N 40°36' E 001°42'1019.5
2017-Jun-22 04:00N 40°45' E 001°47'1019.3
2017-Jun-22 03:30N 40°54' E 001°52'1019.2
2017-Jun-22 03:00N 41°01' E 002°00'1019.0
2017-Jun-22 02:30N 41°10' E 002°07'817.0
2017-Jun-22 02:00N 41°18' E 002°11'3 6.2
2017-Jun-22 01:30N 41°21' E 002°10'1 0.8
2017-Jun-22 00:50N 41°21' E 002°10'0 0.0
2017-Jun-22 00:23N 41°21' E 002°10'0 0.0
2017-Jun-21 23:47N 41°21' E 002°10'0 0.0
2017-Jun-21 23:20N 41°21' E 002°10'0 0.0
2017-Jun-21 22:53N 41°21' E 002°10'0 0.0
2017-Jun-21 22:29N 41°21' E 002°10'0 0.0
2017-Jun-21 21:20N 41°21' E 002°10'0 0.0
2017-Jun-21 20:59N 41°21' E 002°10'0 0.0
2017-Jun-21 20:14N 41°21' E 002°10'0 0.0
2017-Jun-21 19:59N 41°21' E 002°10'0 0.0
2017-Jun-21 19:29N 41°21' E 002°10'0 0.0
2017-Jun-21 18:02N 41°21' E 002°10'0 0.0
2017-Jun-21 17:50N 41°21' E 002°10'0 0.0
2017-Jun-21 17:26N 41°21' E 002°10'0 0.0
2017-Jun-21 16:32N 41°21' E 002°10'0 0.0
2017-Jun-21 16:14N 41°21' E 002°10'0 0.0
2017-Jun-21 15:59N 41°21' E 002°10'0 0.0
2017-Jun-21 13:38N 41°21' E 002°10'0 0.0
2017-Jun-21 13:14N 41°21' E 002°10'0 0.0
2017-Jun-21 12:44N 41°21' E 002°10'0 0.0
2017-Jun-21 11:32N 41°21' E 002°10'0 0.0
2017-Jun-21 11:14N 41°21' E 002°10'0 0.0
2017-Jun-21 10:44N 41°21' E 002°10'0 0.0
2017-Jun-21 07:50N 41°21' E 002°10'0 0.0
2017-Jun-21 07:29N 41°21' E 002°10'1 2.4
2017-Jun-21 06:59N 41°20' E 002°10'3 6.9
2017-Jun-21 06:30N 41°17' E 002°11'5 9.7
2017-Jun-21 06:00N 41°16' E 002°18'4 8.7
2017-Jun-21 05:30N 41°15' E 002°23'0 1.0
2017-Jun-21 05:01N 41°14' E 002°23'0 0.7
2017-Jun-21 04:26N 41°14' E 002°23'0 0.7
2017-Jun-21 04:00N 41°14' E 002°24'0 0.7
2017-Jun-21 03:30N 41°14' E 002°24'0 0.5
2017-Jun-21 03:00N 41°13' E 002°24'0 0.4
2017-Jun-21 02:30N 41°13' E 002°24'0 0.4
2017-Jun-21 01:59N 41°13' E 002°24'0 0.4
2017-Jun-21 01:30N 41°13' E 002°25'0 0.2
2017-Jun-21 01:00N 41°13' E 002°25'0 0.0
2017-Jun-21 00:30N 41°13' E 002°25'0 0.2
2017-Jun-21 00:00N 41°13' E 002°25'0 0.4
2017-Jun-20 23:31N 41°13' E 002°25'2 3.2
2017-Jun-20 23:00N 41°15' E 002°24'0 0.3
2017-Jun-20 22:30N 41°14' E 002°24'0 0.3
2017-Jun-20 22:00N 41°14' E 002°24'0 0.3
2017-Jun-20 21:30N 41°14' E 002°24'0 0.2
2017-Jun-20 21:00N 41°14' E 002°24'0 0.3
2017-Jun-20 20:31N 41°14' E 002°24'0 0.4
2017-Jun-20 20:00N 41°14' E 002°24'0 0.4
2017-Jun-20 19:30N 41°14' E 002°24'0 0.2
2017-Jun-20 19:00N 41°14' E 002°24'2 3.1
2017-Jun-20 18:31N 41°15' E 002°25'0 0.8
2017-Jun-20 18:00N 41°14' E 002°25'0 0.8
2017-Jun-20 17:30N 41°14' E 002°25'0 0.9
2017-Jun-20 17:01N 41°14' E 002°25'0 0.8
2017-Jun-20 16:30N 41°14' E 002°24'0 0.7
2017-Jun-20 16:01N 41°14' E 002°24'1 2.0
2017-Jun-20 15:30N 41°14' E 002°25'1 2.1
2017-Jun-20 15:00N 41°15' E 002°25'0 0.7
2017-Jun-20 14:30N 41°15' E 002°25'1 1.2
2017-Jun-20 13:30N 41°14' E 002°24'0 0.5
2017-Jun-20 13:00N 41°13' E 002°25'1 1.3
2017-Jun-20 12:30N 41°14' E 002°25'0 0.6
2017-Jun-20 12:00N 41°14' E 002°25'1 2.9
2017-Jun-20 11:30N 41°15' E 002°24'0 0.3
2017-Jun-20 11:00N 41°15' E 002°24'0 1.0
2017-Jun-20 10:30N 41°14' E 002°24'0 0.9
2017-Jun-20 10:00N 41°14' E 002°24'0 0.7
2017-Jun-20 09:30N 41°14' E 002°25'0 0.3
2017-Jun-20 09:00N 41°14' E 002°25'1 1.5
2017-Jun-20 08:29N 41°14' E 002°24'0 0.4
2017-Jun-20 08:00N 41°14' E 002°25'0 0.4
2017-Jun-20 07:30N 41°14' E 002°25'0 0.2
2017-Jun-20 07:00N 41°14' E 002°25'4 7.5
2017-Jun-20 06:30N 41°16' E 002°28'3 6.5
2017-Jun-20 06:00N 41°19' E 002°31'4 6.3
2017-Jun-20 05:26N 41°22' E 002°33'2 5.6
2017-Jun-20 05:00N 41°23' E 002°36'3 5.7
2017-Jun-20 04:30N 41°24' E 002°39'3 5.6
2017-Jun-20 04:00N 41°25' E 002°43'3 5.7
2017-Jun-20 03:31N 41°26' E 002°47'3 5.8
2017-Jun-20 03:00N 41°27' E 002°50'3 6.0
2017-Jun-20 02:30N 41°28' E 002°54'3 6.1
2017-Jun-20 02:01N 41°29' E 002°58'3 6.1
2017-Jun-20 01:30N 41°30' E 003°02'3 6.1
2017-Jun-20 01:00N 41°31' E 003°06'3 6.0
2017-Jun-20 00:30N 41°32' E 003°09'3 6.0
2017-Jun-20 00:01N 41°33' E 003°13'3 6.2
2017-Jun-19 23:30N 41°35' E 003°17'3 6.3
2017-Jun-19 23:00N 41°36' E 003°21'3 6.4
2017-Jun-19 22:30N 41°37' E 003°25'3 6.3
2017-Jun-19 22:00N 41°38' E 003°28'3 6.2
2017-Jun-19 21:30N 41°40' E 003°32'3 6.3
2017-Jun-19 21:00N 41°41' E 003°36'3 6.2
2017-Jun-19 20:30N 41°43' E 003°39'3 5.9
2017-Jun-19 20:01N 41°44' E 003°43'3 5.9
2017-Jun-19 19:30N 41°46' E 003°46'3 5.6
2017-Jun-19 19:01N 41°47' E 003°50'0 0.6
2017-Jun-19 18:30N 41°47' E 003°50'0 0.8
2017-Jun-19 18:00N 41°46' E 003°50'0 0.8
2017-Jun-19 17:30N 41°46' E 003°50'0 0.8
2017-Jun-19 17:00N 41°46' E 003°49'0 0.8
2017-Jun-19 16:30N 41°45' E 003°49'0 0.8
2017-Jun-19 16:00N 41°45' E 003°49'0 0.7
2017-Jun-19 15:30N 41°45' E 003°48'0 0.6
2017-Jun-19 15:00N 41°45' E 003°48'0 0.5
2017-Jun-19 14:18N 41°44' E 003°48'1 0.8
2017-Jun-19 13:31N 41°45' E 003°49'3 6.0
2017-Jun-19 13:00N 41°46' E 003°53'3 6.3
2017-Jun-19 12:30N 41°47' E 003°57'3 6.4
2017-Jun-19 12:01N 41°48' E 004°00'3 6.5
2017-Jun-19 11:30N 41°50' E 004°05'3 6.7
2017-Jun-19 11:00N 41°51' E 004°09'3 6.8
2017-Jun-19 10:30N 41°52' E 004°13'13 7.7
2017-Jun-19 08:46N 41°58' E 004°29'3410.1
2017-Jun-19 05:24N 42°11' E 005°11'510.3
2017-Jun-19 04:55N 42°13' E 005°17'410.4
2017-Jun-19 04:30N 42°15' E 005°23'510.5
2017-Jun-19 03:59N 42°17' E 005°29'510.5
2017-Jun-19 03:30N 42°19' E 005°35'510.4
2017-Jun-19 03:00N 42°22' E 005°42'510.3
2017-Jun-19 02:31N 42°24' E 005°48'510.3
2017-Jun-19 01:59N 42°26' E 005°55'510.3
2017-Jun-19 01:30N 42°28' E 006°01'3010.5
2017-Jun-18 22:39N 42°40' E 006°38'2510.1
2017-Jun-18 20:11N 42°52' E 007°08'4 9.9
2017-Jun-18 19:46N 42°54' E 007°13'4 9.8
2017-Jun-18 19:18N 42°56' E 007°18'3 9.7
2017-Jun-18 19:00N 42°58' E 007°21'5 9.8
2017-Jun-18 18:31N 43°01' E 007°27'5 9.8
2017-Jun-18 18:00N 43°04' E 007°32'5 9.8
2017-Jun-18 17:30N 43°06' E 007°38'5 9.7
2017-Jun-18 17:00N 43°09' E 007°44'5 9.7
2017-Jun-18 16:30N 43°12' E 007°49'5 9.4
2017-Jun-18 16:00N 43°14' E 007°54'5 9.3
2017-Jun-18 15:30N 43°17' E 007°60'5 9.4
2017-Jun-18 15:00N 43°19' E 008°05'1414.3
2017-Jun-18 14:00N 43°30' E 008°18'816.5
2017-Jun-18 13:30N 43°37' E 008°24'816.5
2017-Jun-18 13:00N 43°44' E 008°30'816.4
2017-Jun-18 12:30N 43°51' E 008°35'816.3
2017-Jun-18 12:00N 43°59' E 008°41'917.4
2017-Jun-18 11:30N 44°06' E 008°47'1019.1
2017-Jun-18 11:00N 44°15' E 008°53'816.3
2017-Jun-18 10:30N 44°22' E 008°57'3 5.2
2017-Jun-18 10:00N 44°24' E 008°55'0 0.0
2017-Jun-18 09:30N 44°24' E 008°55'0 0.0
2017-Jun-18 09:00N 44°24' E 008°55'0 0.0
2017-Jun-18 08:30N 44°24' E 008°55'0 0.0
2017-Jun-18 08:00N 44°24' E 008°55'0 0.0
2017-Jun-18 07:30N 44°24' E 008°55'0 0.0
2017-Jun-18 07:00N 44°24' E 008°55'0 0.0
2017-Jun-18 06:27N 44°24' E 008°55'0 0.0
2017-Jun-18 06:00N 44°24' E 008°55'0 0.0
2017-Jun-18 05:30N 44°24' E 008°55'0 0.0
2017-Jun-18 05:00N 44°24' E 008°55'0 0.0
2017-Jun-18 04:30N 44°24' E 008°55'0 0.0
2017-Jun-18 04:00N 44°24' E 008°55'0 0.0
2017-Jun-18 03:30N 44°24' E 008°55'  
Track history (hours):
 
Tides and Currents Weather Stations Pressure Air Temp Water Temp Dewpoint Dewpoint Depression Visibility Wind Speed Wind Dir Waves Ship Positions

CMA CGM Tosca

Last reported at 2017-Jun-28 03:28 UTC. Time now 2017-Jun-28 03:40 UTC.
Position N 44°24' E 008°55'.

Length 334 m; draft 10.8 m.

Type: Cargo ship. MMSI: 228335900.

Date/timePositionNaut miles runAvg speedWind from/ knotsBaromVisibWave heightAir tempDewpointWater temp
2017-Jun-28 03:28N 44°24' E 008°55'0 0.0
2017-Jun-28 02:52N 44°24' E 008°55'0 0.0
2017-Jun-28 02:28N 44°24' E 008°55'0 0.0
2017-Jun-28 01:58N 44°24' E 008°55'0 0.0
2017-Jun-28 01:28N 44°24' E 008°55'0 0.0
2017-Jun-28 00:58N 44°24' E 008°55'0 0.0
2017-Jun-28 00:28N 44°24' E 008°55'0 0.0
2017-Jun-27 23:58N 44°24' E 008°55'0 0.0
2017-Jun-27 23:28N 44°24' E 008°55'0 0.0
2017-Jun-27 22:58N 44°24' E 008°55'0 0.0
2017-Jun-27 22:28N 44°24' E 008°55'0 0.0
2017-Jun-27 21:58N 44°24' E 008°55'0 0.0
2017-Jun-27 21:28N 44°24' E 008°55'0 0.0
2017-Jun-27 20:58N 44°24' E 008°55'0 0.0
2017-Jun-27 20:28N 44°24' E 008°55'0 0.0
2017-Jun-27 19:58N 44°24' E 008°55'0 0.0
2017-Jun-27 19:28N 44°24' E 008°55'0 0.0
2017-Jun-27 18:58N 44°24' E 008°55'0 0.0
2017-Jun-27 18:28N 44°24' E 008°55'0 0.0
2017-Jun-27 17:58N 44°24' E 008°55'0 0.0
2017-Jun-27 17:29N 44°24' E 008°55'1 1.6
2017-Jun-27 17:00N 44°24' E 008°56'2 3.3
2017-Jun-27 16:30N 44°23' E 008°57'1 2.3
2017-Jun-27 16:00N 44°22' E 008°58'0 0.1
2017-Jun-27 15:30N 44°22' E 008°58'4 7.5
2017-Jun-27 15:00N 44°18' E 008°58'2019.7
2017-Jun-27 14:00N 43°59' E 008°49'1020.8
2017-Jun-27 13:30N 43°50' E 008°41'1020.3
2017-Jun-27 13:00N 43°43' E 008°31'1120.4
2017-Jun-27 12:28N 43°34' E 008°22'1620.4
2017-Jun-27 11:39N 43°23' E 008°06'3420.2
2017-Jun-27 09:58N 43°02' E 007°29'1320.0
2017-Jun-27 09:20N 42°55' E 007°15'10114.4
2017-Jun-27 02:22N 43°16' E 004°60'616.1
2017-Jun-27 02:00N 43°21' E 004°58'4 0.2
2017-Jun-26 09:09N 43°24' E 004°54'211.4
2017-Jun-26 08:58N 43°23' E 004°56'4 9.2
2017-Jun-26 08:30N 43°20' E 004°59'1112.9
2017-Jun-26 07:41N 43°09' E 005°02'617.5
2017-Jun-26 07:21N 43°04' E 004°59'719.3
2017-Jun-26 06:58N 42°58' E 004°53'919.5
2017-Jun-26 06:30N 42°50' E 004°45'1019.3
2017-Jun-26 05:59N 42°42' E 004°37'5019.4
2017-Jun-26 03:25N 42°02' E 003°57'1419.6
2017-Jun-26 02:43N 41°51' E 003°46'1219.3
2017-Jun-26 02:07N 41°42' E 003°37'219.3
2017-Jun-26 01:59N 41°40' E 003°35'919.4
2017-Jun-26 01:30N 41°33' E 003°27'1019.7
2017-Jun-26 01:00N 41°25' E 003°18'1019.7
2017-Jun-26 00:30N 41°17' E 003°10'1019.9
2017-Jun-26 00:00N 41°10' E 003°01'1019.7
2017-Jun-25 23:30N 41°02' E 002°53'1019.5
2017-Jun-25 23:00N 40°55' E 002°45'1019.4
2017-Jun-25 22:30N 40°47' E 002°37'1019.4
2017-Jun-25 21:59N 40°39' E 002°29'919.1
2017-Jun-25 21:30N 40°32' E 002°21'1019.1
2017-Jun-25 21:00N 40°25' E 002°13'1019.3
2017-Jun-25 20:31N 40°17' E 002°05'1019.6
2017-Jun-25 20:00N 40°10' E 001°57'1019.7
2017-Jun-25 19:30N 40°02' E 001°49'1019.5
2017-Jun-25 19:00N 39°55' E 001°40'1019.4
2017-Jun-25 18:30N 39°47' E 001°32'1019.5
2017-Jun-25 18:00N 39°40' E 001°24'1019.5
2017-Jun-25 17:30N 39°33' E 001°16'1019.3
2017-Jun-25 17:00N 39°25' E 001°08'1019.1
2017-Jun-25 16:30N 39°18' E 001°00'1018.9
2017-Jun-25 16:00N 39°10' E 000°53'1019.2
2017-Jun-25 15:30N 39°02' E 000°45'1019.5
2017-Jun-25 14:58N 38°54' E 000°38'919.4
2017-Jun-25 14:30N 38°46' E 000°33'1918.9
2017-Jun-25 13:30N 38°30' E 000°19'918.6
2017-Jun-25 13:00N 38°23' E 000°12'918.3
2017-Jun-25 12:30N 38°15' E 000°06'918.2
2017-Jun-25 12:00N 38°08' W 000°01'918.3
2017-Jun-25 11:30N 37°60' W 000°07'918.2
2017-Jun-25 11:00N 37°52' W 000°14'918.3
2017-Jun-25 10:30N 37°45' W 000°21'1018.7
2017-Jun-25 09:59N 37°37' W 000°27'918.9
2017-Jun-25 09:30N 37°30' W 000°35'918.4
2017-Jun-25 09:00N 37°24' W 000°43'918.5
2017-Jun-25 08:30N 37°18' W 000°52'918.4
2017-Jun-25 08:00N 37°11' W 001°01'918.2
2017-Jun-25 07:30N 37°05' W 001°09'917.8
2017-Jun-25 07:00N 36°60' W 001°18'918.0
2017-Jun-25 06:30N 36°54' W 001°26'917.8
2017-Jun-25 06:00N 36°48' W 001°34'917.6
2017-Jun-25 05:30N 36°42' W 001°42'917.7
2017-Jun-25 05:00N 36°36' W 001°51'918.3
2017-Jun-25 04:30N 36°29' W 001°58'918.2
2017-Jun-25 04:00N 36°24' W 002°07'1018.7
2017-Jun-25 03:29N 36°21' W 002°19'918.2
2017-Jun-25 03:00N 36°19' W 002°30'12118.7
2017-Jun-24 20:33N 36°02' W 004°58'119.3
2017-Jun-24 20:30N 36°02' W 004°59'1019.1
2017-Jun-24 20:00N 35°60' W 005°11'1021.0
2017-Jun-24 19:30N 35°58' W 005°23'7 0.3
2017-Jun-23 21:52N 35°54' W 005°30'1 3.6
2017-Jun-23 21:29N 35°55' W 005°30'2 1.3
2017-Jun-23 19:48N 35°55' W 005°33'2 4.8
2017-Jun-23 19:23N 35°56' W 005°31'2 4.8
2017-Jun-23 19:00N 35°58' W 005°30'1 2.2
2017-Jun-23 18:30N 35°59' W 005°29'1 2.3
2017-Jun-23 18:00N 35°59' W 005°28'2 3.5
2017-Jun-23 17:30N 35°59' W 005°26'2 4.2
2017-Jun-23 17:00N 36°00' W 005°23'3 6.4
2017-Jun-23 16:30N 36°01' W 005°20'2 3.8
2017-Jun-23 16:00N 36°01' W 005°17'2 3.5
2017-Jun-23 15:30N 36°01' W 005°15'2 4.3
2017-Jun-23 15:00N 36°02' W 005°13'5 4.8
2017-Jun-23 14:00N 36°03' W 005°07'2 4.8
2017-Jun-23 13:30N 36°04' W 005°04'612.1
2017-Jun-23 12:58N 36°05' W 004°56'13612.2
2017-Jun-23 01:51N 36°27' W 002°10'411.0
2017-Jun-23 01:30N 36°29' W 002°07'611.1
2017-Jun-23 01:00N 36°33' W 002°01'611.4
2017-Jun-23 00:28N 36°37' W 001°56'511.7
2017-Jun-23 00:00N 36°40' W 001°51'611.7
2017-Jun-22 23:30N 36°44' W 001°45'611.8
2017-Jun-22 23:00N 36°48' W 001°40'611.8
2017-Jun-22 22:30N 36°52' W 001°34'1411.6
2017-Jun-22 21:20N 37°01' W 001°22'411.2
2017-Jun-22 20:59N 37°04' W 001°18'711.2
2017-Jun-22 20:23N 37°08' W 001°11'1511.4
2017-Jun-22 19:06N 37°18' W 000°58'111.2
2017-Jun-22 19:00N 37°18' W 000°56'511.0
2017-Jun-22 18:30N 37°22' W 000°51'510.7
2017-Jun-22 18:00N 37°26' W 000°46'510.5
2017-Jun-22 17:30N 37°29' W 000°41'510.3
2017-Jun-22 17:00N 37°33' W 000°37'5 9.9
2017-Jun-22 16:30N 37°36' W 000°32'510.0
2017-Jun-22 16:00N 37°40' W 000°28'510.1
2017-Jun-22 15:30N 37°44' W 000°25'510.2
2017-Jun-22 15:00N 37°49' W 000°21'815.1
2017-Jun-22 14:30N 37°55' W 000°17'1818.0
2017-Jun-22 13:31N 38°10' W 000°04'917.8
2017-Jun-22 13:01N 38°18' E 000°02'917.7
2017-Jun-22 12:30N 38°25' E 000°08'917.7
2017-Jun-22 12:01N 38°32' E 000°14'917.5
2017-Jun-22 11:30N 38°40' E 000°20'917.5
2017-Jun-22 11:00N 38°48' E 000°26'918.2
2017-Jun-22 10:31N 38°55' E 000°32'918.4
2017-Jun-22 10:01N 39°04' E 000°37'918.8
2017-Jun-22 09:31N 39°12' E 000°43'1019.2
2017-Jun-22 08:59N 39°21' E 000°49'1119.1
2017-Jun-22 08:25N 39°30' E 000°56'818.9
2017-Jun-22 08:00N 39°37' E 001°01'918.9
2017-Jun-22 07:30N 39°45' E 001°07'918.7
2017-Jun-22 07:00N 39°54' E 001°12'918.9
2017-Jun-22 06:30N 40°02' E 001°18'1019.2
2017-Jun-22 06:00N 40°11' E 001°24'1019.3
2017-Jun-22 05:30N 40°19' E 001°30'1019.5
2017-Jun-22 05:00N 40°27' E 001°36'1019.6
2017-Jun-22 04:30N 40°36' E 001°42'1019.5
2017-Jun-22 04:00N 40°45' E 001°47'1019.3
2017-Jun-22 03:30N 40°54' E 001°52'1019.2
2017-Jun-22 03:00N 41°01' E 002°00'1019.0
2017-Jun-22 02:30N 41°10' E 002°07'817.0
2017-Jun-22 02:00N 41°18' E 002°11'3 6.2
2017-Jun-22 01:30N 41°21' E 002°10'1 0.8
2017-Jun-22 00:50N 41°21' E 002°10'0 0.0
2017-Jun-22 00:23N 41°21' E 002°10'0 0.0
2017-Jun-21 23:47N 41°21' E 002°10'0 0.0
2017-Jun-21 23:20N 41°21' E 002°10'0 0.0
2017-Jun-21 22:53N 41°21' E 002°10'0 0.0
2017-Jun-21 22:29N 41°21' E 002°10'0 0.0
2017-Jun-21 21:20N 41°21' E 002°10'0 0.0
2017-Jun-21 20:59N 41°21' E 002°10'0 0.0
2017-Jun-21 20:14N 41°21' E 002°10'0 0.0
2017-Jun-21 19:59N 41°21' E 002°10'0 0.0
2017-Jun-21 19:29N 41°21' E 002°10'0 0.0
2017-Jun-21 18:02N 41°21' E 002°10'0 0.0
2017-Jun-21 17:50N 41°21' E 002°10'0 0.0
2017-Jun-21 17:26N 41°21' E 002°10'0 0.0
2017-Jun-21 16:32N 41°21' E 002°10'0 0.0
2017-Jun-21 16:14N 41°21' E 002°10'0 0.0
2017-Jun-21 15:59N 41°21' E 002°10'0 0.0
2017-Jun-21 13:38N 41°21' E 002°10'0 0.0
2017-Jun-21 13:14N 41°21' E 002°10'0 0.0
2017-Jun-21 12:44N 41°21' E 002°10'0 0.0
2017-Jun-21 11:32N 41°21' E 002°10'0 0.0
2017-Jun-21 11:14N 41°21' E 002°10'0 0.0
2017-Jun-21 10:44N 41°21' E 002°10'0 0.0
2017-Jun-21 07:50N 41°21' E 002°10'0 0.0
2017-Jun-21 07:29N 41°21' E 002°10'1 2.4
2017-Jun-21 06:59N 41°20' E 002°10'3 6.9
2017-Jun-21 06:30N 41°17' E 002°11'5 9.7
2017-Jun-21 06:00N 41°16' E 002°18'4 8.7
2017-Jun-21 05:30N 41°15' E 002°23'0 1.0
2017-Jun-21 05:01N 41°14' E 002°23'0 0.7
2017-Jun-21 04:26N 41°14' E 002°23'0 0.7
2017-Jun-21 04:00N 41°14' E 002°24'0 0.7
2017-Jun-21 03:30N 41°14' E 002°24'0 0.5
2017-Jun-21 03:00N 41°13' E 002°24'0 0.4
2017-Jun-21 02:30N 41°13' E 002°24'0 0.4
2017-Jun-21 01:59N 41°13' E 002°24'0 0.4
2017-Jun-21 01:30N 41°13' E 002°25'0 0.2
2017-Jun-21 01:00N 41°13' E 002°25'0 0.0
2017-Jun-21 00:30N 41°13' E 002°25'0 0.2
2017-Jun-21 00:00N 41°13' E 002°25'0 0.4
2017-Jun-20 23:31N 41°13' E 002°25'2 3.2
2017-Jun-20 23:00N 41°15' E 002°24'0 0.3
2017-Jun-20 22:30N 41°14' E 002°24'0 0.3
2017-Jun-20 22:00N 41°14' E 002°24'0 0.3
2017-Jun-20 21:30N 41°14' E 002°24'0 0.2
2017-Jun-20 21:00N 41°14' E 002°24'0 0.3
2017-Jun-20 20:31N 41°14' E 002°24'0 0.4
2017-Jun-20 20:00N 41°14' E 002°24'0 0.4
2017-Jun-20 19:30N 41°14' E 002°24'0 0.2
2017-Jun-20 19:00N 41°14' E 002°24'2 3.1
2017-Jun-20 18:31N 41°15' E 002°25'0 0.8
2017-Jun-20 18:00N 41°14' E 002°25'0 0.8
2017-Jun-20 17:30N 41°14' E 002°25'0 0.9
2017-Jun-20 17:01N 41°14' E 002°25'0 0.8
2017-Jun-20 16:30N 41°14' E 002°24'0 0.7
2017-Jun-20 16:01N 41°14' E 002°24'1 2.0
2017-Jun-20 15:30N 41°14' E 002°25'1 2.1
2017-Jun-20 15:00N 41°15' E 002°25'0 0.7
2017-Jun-20 14:30N 41°15' E 002°25'1 1.2
2017-Jun-20 13:30N 41°14' E 002°24'0 0.5
2017-Jun-20 13:00N 41°13' E 002°25'1 1.3
2017-Jun-20 12:30N 41°14' E 002°25'0 0.6
2017-Jun-20 12:00N 41°14' E 002°25'1 2.9
2017-Jun-20 11:30N 41°15' E 002°24'0 0.3
2017-Jun-20 11:00N 41°15' E 002°24'0 1.0
2017-Jun-20 10:30N 41°14' E 002°24'0 0.9
2017-Jun-20 10:00N 41°14' E 002°24'0 0.7
2017-Jun-20 09:30N 41°14' E 002°25'0 0.3
2017-Jun-20 09:00N 41°14' E 002°25'1 1.5
2017-Jun-20 08:29N 41°14' E 002°24'0 0.4
2017-Jun-20 08:00N 41°14' E 002°25'0 0.4
2017-Jun-20 07:30N 41°14' E 002°25'0 0.2
2017-Jun-20 07:00N 41°14' E 002°25'4 7.5
2017-Jun-20 06:30N 41°16' E 002°28'3 6.5
2017-Jun-20 06:00N 41°19' E 002°31'4 6.3
2017-Jun-20 05:26N 41°22' E 002°33'2 5.6
2017-Jun-20 05:00N 41°23' E 002°36'3 5.7
2017-Jun-20 04:30N 41°24' E 002°39'3 5.6
2017-Jun-20 04:00N 41°25' E 002°43'3 5.7
2017-Jun-20 03:31N 41°26' E 002°47'3 5.8
2017-Jun-20 03:00N 41°27' E 002°50'3 6.0
2017-Jun-20 02:30N 41°28' E 002°54'3 6.1
2017-Jun-20 02:01N 41°29' E 002°58'3 6.1
2017-Jun-20 01:30N 41°30' E 003°02'3 6.1
2017-Jun-20 01:00N 41°31' E 003°06'3 6.0
2017-Jun-20 00:30N 41°32' E 003°09'3 6.0
2017-Jun-20 00:01N 41°33' E 003°13'3 6.2
2017-Jun-19 23:30N 41°35' E 003°17'3 6.3
2017-Jun-19 23:00N 41°36' E 003°21'3 6.4
2017-Jun-19 22:30N 41°37' E 003°25'3 6.3
2017-Jun-19 22:00N 41°38' E 003°28'3 6.2
2017-Jun-19 21:30N 41°40' E 003°32'3 6.3
2017-Jun-19 21:00N 41°41' E 003°36'3 6.2
2017-Jun-19 20:30N 41°43' E 003°39'3 5.9
2017-Jun-19 20:01N 41°44' E 003°43'3 5.9
2017-Jun-19 19:30N 41°46' E 003°46'3 5.6
2017-Jun-19 19:01N 41°47' E 003°50'0 0.6
2017-Jun-19 18:30N 41°47' E 003°50'0 0.8
2017-Jun-19 18:00N 41°46' E 003°50'0 0.8
2017-Jun-19 17:30N 41°46' E 003°50'0 0.8
2017-Jun-19 17:00N 41°46' E 003°49'0 0.8
2017-Jun-19 16:30N 41°45' E 003°49'0 0.8
2017-Jun-19 16:00N 41°45' E 003°49'0 0.7
2017-Jun-19 15:30N 41°45' E 003°48'0 0.6
2017-Jun-19 15:00N 41°45' E 003°48'0 0.5
2017-Jun-19 14:18N 41°44' E 003°48'1 0.8
2017-Jun-19 13:31N 41°45' E 003°49'3 6.0
2017-Jun-19 13:00N 41°46' E 003°53'3 6.3
2017-Jun-19 12:30N 41°47' E 003°57'3 6.4
2017-Jun-19 12:01N 41°48' E 004°00'3 6.5
2017-Jun-19 11:30N 41°50' E 004°05'3 6.7
2017-Jun-19 11:00N 41°51' E 004°09'3 6.8
2017-Jun-19 10:30N 41°52' E 004°13'13 7.7
2017-Jun-19 08:46N 41°58' E 004°29'3410.1
2017-Jun-19 05:24N 42°11' E 005°11'510.3
2017-Jun-19 04:55N 42°13' E 005°17'410.4
2017-Jun-19 04:30N 42°15' E 005°23'510.5
2017-Jun-19 03:59N 42°17' E 005°29'510.5
2017-Jun-19 03:30N 42°19' E 005°35'510.4
2017-Jun-19 03:00N 42°22' E 005°42'510.3
2017-Jun-19 02:31N 42°24' E 005°48'510.3
2017-Jun-19 01:59N 42°26' E 005°55'510.3
2017-Jun-19 01:30N 42°28' E 006°01'3010.5
2017-Jun-18 22:39N 42°40' E 006°38'2510.1
2017-Jun-18 20:11N 42°52' E 007°08'4 9.9
2017-Jun-18 19:46N 42°54' E 007°13'4 9.8
2017-Jun-18 19:18N 42°56' E 007°18'3 9.7
2017-Jun-18 19:00N 42°58' E 007°21'5 9.8
2017-Jun-18 18:31N 43°01' E 007°27'5 9.8
2017-Jun-18 18:00N 43°04' E 007°32'5 9.8
2017-Jun-18 17:30N 43°06' E 007°38'5 9.7
2017-Jun-18 17:00N 43°09' E 007°44'5 9.7
2017-Jun-18 16:30N 43°12' E 007°49'5 9.4
2017-Jun-18 16:00N 43°14' E 007°54'5 9.3
2017-Jun-18 15:30N 43°17' E 007°60'5 9.4
2017-Jun-18 15:00N 43°19' E 008°05'1414.3
2017-Jun-18 14:00N 43°30' E 008°18'816.5
2017-Jun-18 13:30N 43°37' E 008°24'816.5
2017-Jun-18 13:00N 43°44' E 008°30'816.4
2017-Jun-18 12:30N 43°51' E 008°35'816.3
2017-Jun-18 12:00N 43°59' E 008°41'917.4
2017-Jun-18 11:30N 44°06' E 008°47'1019.1
2017-Jun-18 11:00N 44°15' E 008°53'816.3
2017-Jun-18 10:30N 44°22' E 008°57'3 5.2
2017-Jun-18 10:00N 44°24' E 008°55'0 0.0
2017-Jun-18 09:30N 44°24' E 008°55'0 0.0
2017-Jun-18 09:00N 44°24' E 008°55'0 0.0
2017-Jun-18 08:30N 44°24' E 008°55'0 0.0
2017-Jun-18 08:00N 44°24' E 008°55'0 0.0
2017-Jun-18 07:30N 44°24' E 008°55'0 0.0
2017-Jun-18 07:00N 44°24' E 008°55'0 0.0
2017-Jun-18 06:27N 44°24' E 008°55'0 0.0
2017-Jun-18 06:00N 44°24' E 008°55'0 0.0
2017-Jun-18 05:30N 44°24' E 008°55'0 0.0
2017-Jun-18 05:00N 44°24' E 008°55'0 0.0
2017-Jun-18 04:30N 44°24' E 008°55'0 0.0
2017-Jun-18 04:00N 44°24' E 008°55'0 0.0
2017-Jun-18 03:30N 44°24' E 008°55'  

Dump ship's entire track history